Airfield :
LOGIN :

Register | Disclaimer

   EN    FR    IT 

 










Legend :    VFR   Marginal VFR   IFR   Intensive IFR   Very Intensive IFR
Visi :
Ceiling :
>= 8 km
>= 3000ft
5 to 8 km
1000 to 3000 ft
1500m to 5 km
500 to 1000 ft
800 to 1500m
200 to 500 ft
< 800m
< 200 ft
Symbols :   Thunderstorms  Fog  Heavy snow  Heavy precipitations  Wind > 20 kt
SIGMETs :     Misc.  Thunderstorms  Icing  Turbulence  Mountain Waves  Volcanic Ashes







- Airport Elevation : 297 ft
- IATA code : UIP
- Download approach charts


LFRQ - Quimper Pluguffan

CURRENT METAR :
  • 231330Z AUTO 02011KT 350V060 9999 OVC017 15/12 Q1022 TEMPO 34015G30KT

EXPIRED METARs :
  • 231300Z AUTO 36012KT 330V040 9999 BKN015 BKN021 OVC026 15/12 Q1022 TEMPO 34015G30KT
  • 231230Z AUTO 02012KT 340V050 9999 BKN014 BKN020 16/13 Q1021 TEMPO 34015G30KT BECMG BKN018
  • 231200Z AUTO 01013KT 340V040 9999 BKN013 BKN022 OVC044 16/14 Q1020 TEMPO 34015G30KT 4000 DZ BECMG BKN018
  • 231130Z AUTO 35013KT 320V020 8000 BKN008 OVC015 16/15 Q1020 TEMPO 34015G30KT 4000 DZ BECMG BKN018
  • 231100Z AUTO 35015KT 320V030 5000 BR OVC007 16/16 Q1019 TEMPO 30015G30KT BECMG BKN018

TAF TAF LFRQ
Valid from the 23 at 12:00 until the 24 at 12:00 UTC


231100Z 2312/2412 34015KT 8000 OVC009
TEMPO 2312/2313 4000 DZ OVC004
TEMPO 2312/2316 34015G30KT
BECMG 2313/2315 BKN018
BECMG 2318/2320 01005KT
No reported NOTAMs for that airfield.
1 SIGMET reported for the Brest FIR (LFRR) :
 
Severe turbulence
LFRR SIGMET 2 VALID 231100/231500 LFPW
LFRR BREST FIR/UIR SEV TURB FCST WI N4930 W00530 - N5000 W00200 - N5000 W00015 - N4945 W00015 - N4845 W00500 - N4930 W00530 FL350/430 STNR NC=



MET'MAP, your aeronautical weather chart ! - Copyright ORBIFLY December 2007 - Disclaimer

ORBIFLY MET'MAP TEAM :

Programming & Development : Alexandra Zaïnal
Concept & Development : Baudouin d'Aumeries
Co-Development & Prog : Marc-Olivier Méhu
Technical & hardware support : Manuel Goepfert

Contact : metmap@orbifly.com




SOURCES & CREDITS :

   NOAA